Aviation Digital Data Service (ADDS)

Output produced by METARs form (0130 UTC 17 September 2014)
found at http://aviationweather.gov/adds/metars/
 
KHPN 162330Z 1700/1724 35008KT P6SM SCT040 BKN060 
     FM170400 VRB03KT P6SM FEW250 
     FM171500 28005KT P6SM FEW050 FEW250 
     FM172100 20006KT P6SM SCT050 SCT250 AMD NOT SKED